Time;durP1;ratioP1;P1;durP2;ratioP2;P2;SDS_P1;SDS_P2;PMS_P1;PMS_P2;Temp;Humidity;BMP_temperature;BMP_pressure;BME280_temperature;BME280_humidity;BME280_pressure;Samples;Min_cycle;Max_cycle;Signal;HPM_P1;HPM_P2
2022/02/06 00:00:12;;;;;;;;;44.67;33.67;;;;;3.08;63.74;100228.88;6283898;20;3621240;-44
2022/02/06 00:02:42;;;;;;;;;41.50;35.00;;;;;3.13;63.37;100227.00;6313307;20;2855453;-45
2022/02/06 00:05:12;;;;;;;;;44.00;38.50;;;;;2.96;63.89;100224.72;6283738;20;2864877;-47
2022/02/06 00:07:41;;;;;;;;;37.00;33.50;;;;;2.68;65.04;100224.44;6283675;20;2861711;-44
2022/02/06 00:10:10;;;;;;;;;46.50;39.00;;;;;2.71;65.23;100226.16;6284674;20;2853447;-45
2022/02/06 00:12:41;;;;;;;;;35.00;28.00;;;;;2.60;65.59;100226.38;6281371;20;2498159;-49
2022/02/06 00:15:10;;;;;;;;;35.50;32.00;;;;;2.58;65.70;100225.53;6280419;20;2846095;-44
2022/02/06 00:17:39;;;;;;;;;34.00;30.00;;;;;2.77;64.97;100218.97;6282353;20;2500688;-46
2022/02/06 00:20:09;;;;;;;;;31.00;30.33;;;;;2.42;65.34;100217.91;6280986;20;3582551;-47
2022/02/06 00:22:42;;;;;;;;;38.00;32.00;;;;;2.58;65.28;100220.22;6283675;20;2580530;-44
2022/02/06 00:25:28;;;;;;;;;42.00;38.00;;;;;2.65;64.94;100211.25;6281372;20;2858598;-45
2022/02/06 00:28:19;;;;;;;;;39.00;35.50;;;;;2.42;65.51;100207.31;6283421;20;2867319;-44
2022/02/06 00:38:01;;;;;;;;;43.00;41.00;;;;;2.13;66.85;100228.16;6315230;20;2860662;-44
2022/02/06 00:41:25;;;;;;;;;30.33;19.00;;;;;1.86;67.47;100221.59;6283134;20;3580454;-45
2022/02/06 00:43:55;;;;;;;;;49.33;39.67;;;;;1.93;67.02;100224.09;6315654;20;2866960;-45
2022/02/06 00:46:24;;;;;;;;;38.00;38.00;;;;;1.93;66.97;100224.09;6314692;20;2860865;-46
2022/02/06 00:48:58;;;;;;;;;52.50;42.00;;;;;2.13;66.39;100220.22;6281869;20;2508663;-50
2022/02/06 00:51:35;;;;;;;;;48.00;41.50;;;;;1.85;67.49;100220.72;6282143;20;2860681;-47
2022/02/06 00:54:04;;;;;;;;;53.50;44.50;;;;;1.70;67.53;100216.56;6281516;20;2864908;-46
2022/02/06 00:56:34;;;;;;;;;45.00;38.00;;;;;1.64;68.09;100216.66;6282226;20;2870227;-46
2022/02/06 00:59:03;;;;;;;;;44.50;39.00;;;;;1.45;68.85;100218.75;6281998;20;2856776;-45
2022/02/06 01:01:32;;;;;;;;;50.33;38.33;;;;;1.64;68.08;100210.50;6282236;20;2884678;-44
2022/02/06 01:04:04;;;;;;;;;51.67;33.67;;;;;1.71;68.02;100210.38;6309646;20;3636700;-45
2022/02/06 01:06:33;;;;;;;;;50.67;36.67;;;;;1.68;67.99;100207.75;6311506;20;3641976;-45
2022/02/06 01:09:05;;;;;;;;;46.00;31.67;;;;;1.67;67.84;100205.16;6312256;20;2880654;-47
2022/02/06 01:11:35;;;;;;;;;36.00;32.00;;;;;1.61;68.26;100199.97;6313538;20;2848228;-45
2022/02/06 01:19:27;;;;;;;;;47.00;36.00;;;;;1.78;68.43;100187.31;6313844;20;2872227;-45
2022/02/06 01:22:05;;;;;;;;;48.33;41.67;;;;;1.90;67.66;100191.53;6314939;20;2873218;-44
2022/02/06 01:24:49;;;;;;;;;44.50;31.00;;;;;1.68;67.81;100188.38;6309868;20;2501020;-45
2022/02/06 01:27:23;;;;;;;;;44.00;37.67;;;;;1.70;68.25;100183.94;6280523;20;2875326;-45
2022/02/06 01:30:08;;;;;;;;;31.50;26.50;;;;;1.63;68.21;100172.56;6313561;20;2843990;-44
2022/02/06 01:32:44;;;;;;;;;41.00;33.00;;;;;1.56;68.68;100172.72;6280064;20;2500240;-45
2022/02/06 01:35:17;;;;;;;;;42.50;33.00;;;;;1.33;69.50;100179.25;6280211;20;2869027;-45
2022/02/06 01:37:54;;;;;;;;;35.00;27.00;;;;;1.47;68.66;100161.38;6278717;20;2500272;-44
2022/02/06 01:40:38;;;;;;;;;39.00;33.50;;;;;1.34;69.11;100149.25;6281200;20;2844145;-44
2022/02/06 01:43:13;;;;;;;;;35.50;34.00;;;;;1.31;69.80;100147.50;6283436;20;2850254;-44
2022/02/06 01:46:14;;;;;;;;;40.50;30.00;;;;;1.18;70.38;100158.31;6279387;20;2865005;-44
2022/02/06 02:48:16;;;;;;;;;30.00;24.00;;;;;1.71;67.78;100114.19;6283291;20;2500396;-44
2022/02/06 02:50:50;;;;;;;;;36.50;26.00;;;;;1.60;67.84;100111.75;6281390;20;2498210;-44
2022/02/06 02:58:45;;;;;;;;;31.50;25.00;;;;;1.05;68.96;100110.94;6286005;20;2848156;-44
2022/02/06 03:01:25;;;;;;;;;26.33;18.00;;;;;0.91;69.62;100118.19;6286037;20;3585863;-44
2022/02/06 03:03:53;;;;;;;;;28.50;25.00;;;;;0.99;69.84;100113.66;6315219;20;2500404;-45
2022/02/06 03:06:21;;;;;;;;;23.00;22.00;;;;;0.82;69.58;100113.06;6283768;20;2835695;-45
2022/02/06 03:08:50;;;;;;;;;36.50;32.00;;;;;0.96;70.16;100113.72;6281905;20;2500260;-45
2022/02/06 03:11:18;;;;;;;;;36.00;26.00;;;;;0.49;70.99;100109.13;6282398;20;2500264;-44
2022/02/06 03:16:28;;;;;;;;;30.00;28.00;;;;;0.20;73.14;100113.03;6285472;20;2845074;-46
2022/02/06 03:21:27;;;;;;;;;29.00;27.50;;;;;-0.16;74.72;100104.63;6282385;20;2500292;-48
2022/02/06 03:24:09;;;;;;;;;31.33;24.67;;;;;-0.07;74.44;100104.53;6281530;20;3596119;-46
2022/02/06 03:26:38;;;;;;;;;32.67;28.33;;;;;0.24;73.89;100108.56;6280412;20;3594195;-44
2022/02/06 03:29:07;;;;;;;;;44.67;27.00;;;;;0.29;73.26;100106.75;6285160;20;2874325;-45
2022/02/06 03:31:38;;;;;;;;;37.00;30.50;;;;;0.16;74.11;100111.34;6314538;20;2867985;-44
2022/02/06 03:34:08;;;;;;;;;30.00;28.00;;;;;0.39;72.70;100114.53;6282977;20;3580523;-44
2022/02/06 03:36:36;;;;;;;;;35.50;30.00;;;;;0.75;73.38;100119.34;6278063;20;2500363;-46
2022/02/06 03:39:06;;;;;;;;;33.00;30.67;;;;;0.72;71.36;100114.09;6284855;20;3589865;-46
2022/02/06 03:47:19;;;;;;;;;21.50;20.00;;;;;1.52;69.02;100111.88;6315925;20;2821178;-44
2022/02/06 03:49:49;;;;;;;;;27.67;18.67;;;;;1.39;68.82;100106.84;6283698;20;3564892;-44
2022/02/06 03:52:18;;;;;;;;;20.67;18.67;;;;;1.54;68.43;100110.09;6313553;20;3550280;-44
2022/02/06 03:54:47;;;;;;;;;24.00;19.00;;;;;1.55;68.17;100100.38;6312910;20;3559681;-44
2022/02/06 03:57:15;;;;;;;;;19.00;16.67;;;;;1.28;68.57;100092.03;6314005;20;3567016;-45
2022/02/06 03:59:44;;;;;;;;;21.00;17.00;;;;;1.41;68.36;100087.41;6315065;20;3569090;-45
2022/02/06 04:02:13;;;;;;;;;22.00;18.67;;;;;1.58;67.68;100086.22;6315910;20;3575290;-45
2022/02/06 04:04:40;;;;;;;;;26.00;23.00;;;;;1.77;66.84;100074.41;6315099;20;2844047;-44
2022/02/06 04:07:12;;;;;;;;;31.00;20.67;;;;;1.63;67.05;100065.84;6283752;20;3575248;-45
2022/02/06 04:09:49;;;;;;;;;26.00;23.00;;;;;1.49;67.76;100074.91;6314515;20;2850341;-45
2022/02/06 04:12:21;;;;;;;;;17.00;16.00;;;;;1.63;67.29;100061.41;6284560;20;3553334;-46
2022/02/06 04:17:29;;;;;;;;;24.00;22.00;;;;;1.57;68.21;100056.25;6317422;20;2831524;-45
2022/02/06 04:19:58;;;;;;;;;19.50;18.50;;;;;1.51;67.91;100066.94;6283786;20;2821186;-44
2022/02/06 04:22:26;;;;;;;;;26.33;19.67;;;;;1.45;67.72;100070.59;6282846;20;3567716;-45
2022/02/06 04:24:57;;;;;;;;;26.17;19.00;;;;;1.69;67.10;100065.72;6337875;20;2843036;-45
2022/02/06 04:27:26;;;;;;;;;29.67;21.33;;;;;1.38;67.99;100068.94;6314329;20;3571128;-44
2022/02/06 04:29:54;;;;;;;;;22.67;19.33;;;;;1.52;67.77;100061.59;6312091;20;2807672;-45
2022/02/06 04:32:26;;;;;;;;;19.67;18.33;;;;;1.62;67.70;100064.09;6314055;20;3568052;-44
2022/02/06 04:34:56;;;;;;;;;23.00;18.67;;;;;1.56;67.40;100058.94;6313083;20;3538937;-44
2022/02/06 04:37:35;;;;;;;;;25.50;19.00;;;;;1.33;68.02;100062.84;6315244;20;2818096;-45
2022/02/06 04:40:24;;;;;;;;;22.33;18.33;;;;;1.28;68.36;100055.00;6282323;20;3560707;-45
2022/02/06 05:13:45;;;;;;;;;21.00;19.00;;;;;1.36;68.35;100031.06;6314603;20;2833743;-44
2022/02/06 05:21:10;;;;;;;;;19.00;17.33;;;;;1.59;67.85;100022.69;6312618;20;3560753;-45
2022/02/06 05:24:27;;;;;;;;;17.33;9.67;;;;;1.72;68.01;100023.31;6350534;20;1818144;-44
2022/02/06 05:29:22;;;;;;;;;9.67;5.00;;;;;1.81;67.25;100023.13;6282065;20;3475257;-44
2022/02/06 05:34:19;;;;;;;;;23.00;20.67;;;;;1.84;67.65;100017.75;6277023;20;3561677;-46
2022/02/06 05:36:48;;;;;;;;;17.00;14.00;;;;;1.29;69.61;100008.25;6312876;20;2821139;-45
2022/02/06 05:39:16;;;;;;;;;14.00;13.00;;;;;1.56;69.06;100012.16;6283002;20;2801322;-46
2022/02/06 05:41:47;;;;;;;;;16.00;14.29;;;;;1.48;69.56;100014.97;6320085;20;1821214;-47
2022/02/06 05:44:15;;;;;;;;;16.50;12.50;;;;;1.78;69.11;100019.66;6309841;20;2793028;-44
2022/02/06 05:46:43;;;;;;;;;17.00;13.00;;;;;1.35;69.42;100016.09;6280846;20;2798160;-44
2022/02/06 05:49:11;;;;;;;;;13.00;11.00;;;;;1.22;70.07;100022.50;6281259;20;2788876;-45
2022/02/06 05:51:40;;;;;;;;;12.00;9.00;;;;;1.68;69.22;100021.63;6279033;20;2762738;-46
2022/02/06 05:54:08;;;;;;;;;22.00;13.50;;;;;1.64;68.79;100033.19;6280421;20;2824313;-50
2022/02/06 05:56:35;;;;;;;;;18.50;14.00;;;;;1.64;70.06;100038.47;6281724;20;2798217;-46
2022/02/06 05:59:06;;;;;;;;;15.33;9.00;;;;;1.44;69.43;100039.72;6322124;20;1822041;-49
2022/02/06 06:01:36;;;;;;;;;12.00;12.00;;;;;1.49;68.87;100032.56;6320222;20;1825364;-44
2022/02/06 06:04:05;;;;;;;;;13.00;13.00;;;;;1.38;69.63;100039.84;6281958;20;2814973;-46
2022/02/06 06:06:35;;;;;;;;;11.00;11.00;;;;;1.39;69.44;100033.63;6280380;20;2791966;-45
2022/02/06 06:09:05;;;;;;;;;19.50;13.00;;;;;1.42;70.43;100025.66;6280078;20;2810701;-46
2022/02/06 06:11:34;;;;;;;;;19.00;15.33;;;;;1.01;69.82;100024.63;6280260;20;3545200;-45
2022/02/06 06:14:05;;;;;;;;;19.86;16.86;;;;;1.22;70.35;100027.81;6345345;20;1833638;-46
2022/02/06 06:16:34;;;;;;;;;15.00;15.00;;;;;1.09;69.97;100020.06;6312263;20;2795272;-45
2022/02/06 06:19:05;;;;;;;;;19.00;19.00;;;;;1.19;70.01;100025.22;6312367;20;3562003;-45
2022/02/06 06:21:39;;;;;;;;;15.33;15.33;;;;;1.36;69.28;100028.41;6312063;20;3548216;-44
2022/02/06 06:24:07;;;;;;;;;20.50;16.50;;;;;1.26;69.96;100029.47;6311782;20;2822187;-45
2022/02/06 06:26:39;;;;;;;;;20.67;19.00;;;;;1.36;69.50;100025.75;6279677;20;3572139;-45
2022/02/06 06:29:08;;;;;;;;;24.33;18.33;;;;;1.35;69.45;100039.91;6309847;20;3564874;-45
2022/02/06 06:31:36;;;;;;;;;21.33;19.00;;;;;1.59;69.13;100032.41;6311771;20;3540910;-45
2022/02/06 06:34:05;;;;;;;;;27.33;21.33;;;;;1.45;68.36;100025.59;6310130;20;3564813;-44
2022/02/06 06:36:36;;;;;;;;;28.00;22.00;;;;;1.60;68.12;100024.41;6311103;20;3570047;-44
2022/02/06 06:39:06;;;;;;;;;22.00;13.00;;;;;1.72;67.67;100024.19;6310707;20;2809686;-47
2022/02/06 06:41:58;;;;;;;;;15.29;14.00;;;;;1.74;67.07;100024.16;6349960;20;1821130;-44
2022/02/06 06:44:28;;;;;;;;;12.83;9.33;;;;;1.95;67.18;100025.50;6346116;20;1814948;-44
2022/02/06 06:46:56;;;;;;;;;16.50;12.50;;;;;2.05;66.46;100020.88;6282515;20;2793016;-45
2022/02/06 06:49:24;;;;;;;;;16.00;14.50;;;;;2.19;66.38;100018.81;6279820;20;2816972;-44
2022/02/06 06:51:55;;;;;;;;;20.00;16.00;;;;;2.10;66.18;100016.34;6276734;20;2823229;-45
2022/02/06 06:54:24;;;;;;;;;15.00;12.00;;;;;2.32;65.75;100020.28;6277432;20;2804616;-46
2022/02/06 06:57:00;;;;;;;;;15.00;10.67;;;;;2.25;65.37;100021.31;6319559;20;1821166;-44
2022/02/06 07:04:57;;;;;;;;;25.33;18.33;;;;;2.07;67.45;100013.75;6280291;20;3592110;-45
2022/02/06 07:07:27;;;;;;;;;30.00;21.33;;;;;2.28;66.24;100013.28;6277920;20;3581667;-45
2022/02/06 07:09:55;;;;;;;;;26.00;21.00;;;;;2.47;65.08;100002.25;6278769;20;2827399;-44
2022/02/06 07:12:23;;;;;;;;;20.67;17.67;;;;;2.24;65.88;100006.34;6284527;20;3570024;-46
2022/02/06 07:14:54;;;;;;;;;17.83;15.00;;;;;2.01;66.35;100001.53;6339344;20;2823229;-46
2022/02/06 07:17:23;;;;;;;;;15.00;14.33;;;;;2.10;66.52;99997.81;6317595;20;2812042;-48
2022/02/06 07:19:52;;;;;;;;;20.33;15.67;;;;;2.59;65.67;100002.84;6315062;20;3555555;-45
2022/02/06 07:22:21;;;;;;;;;25.67;15.67;;;;;2.40;64.96;99997.13;6315603;20;3567949;-46
2022/02/06 07:24:52;;;;;;;;;17.00;17.00;;;;;2.36;65.49;99984.84;6285091;20;3568968;-46
2022/02/06 07:27:27;;;;;;;;;17.00;12.00;;;;;2.25;65.79;99992.16;6317083;20;2791076;-45
2022/02/06 07:29:58;;;;;;;;;25.00;18.50;;;;;2.07;66.95;99989.94;6288921;20;2819016;-45
2022/02/06 07:32:28;;;;;;;;;15.67;15.00;;;;;1.85;67.58;99985.09;6280934;20;3552385;-44
2022/02/06 07:34:56;;;;;;;;;25.00;21.33;;;;;2.23;67.76;99988.69;6314579;20;3564857;-46
2022/02/06 07:37:25;;;;;;;;;24.50;24.50;;;;;2.21;67.51;99990.47;6312969;20;2500747;-45
2022/02/06 07:39:53;;;;;;;;;26.67;22.33;;;;;1.77;67.69;99983.53;6286423;20;3567917;-43
2022/02/06 07:42:24;;;;;;;;;25.00;21.67;;;;;1.84;67.36;99990.41;6285755;20;3555479;-44
2022/02/06 07:44:53;;;;;;;;;23.33;21.00;;;;;2.21;66.64;99985.19;6280765;20;3561892;-43
2022/02/06 07:47:23;;;;;;;;;20.00;17.50;;;;;2.11;67.01;99991.63;6317328;20;2827466;-44
2022/02/06 07:49:54;;;;;;;;;27.67;23.00;;;;;2.20;67.07;99986.09;6280572;20;3588769;-44
2022/02/06 07:52:26;;;;;;;;;21.00;19.33;;;;;1.74;68.13;99981.81;6282746;20;3541895;-46
2022/02/06 07:54:56;;;;;;;;;18.33;15.67;;;;;1.93;67.30;99991.09;6312674;20;3556477;-44
2022/02/06 07:57:25;;;;;;;;;19.33;18.00;;;;;2.25;67.39;99993.94;6313890;20;3553356;-44
2022/02/06 07:59:53;;;;;;;;;22.33;15.67;;;;;2.48;66.00;99990.78;6315133;20;2821167;-44
2022/02/06 08:02:21;;;;;;;;;18.50;15.50;;;;;2.16;66.98;99993.25;6315305;20;2823189;-43
2022/02/06 08:04:50;;;;;;;;;14.00;12.00;;;;;2.36;65.92;99994.56;6278147;20;2812855;-44
2022/02/06 08:07:19;;;;;;;;;3.00;2.00;;;;;2.50;65.72;99988.94;6304795;20;1814429;-44
2022/02/06 08:12:16;;;;;;;;;13.00;13.00;;;;;2.23;65.88;99991.31;6274706;20;2787743;-44
2022/02/06 08:14:50;;;;;;;;;17.00;13.80;;;;;3.05;64.58;99984.91;6304006;20;2794019;-43
2022/02/06 08:17:25;;;;;;;;;10.25;8.75;;;;;3.14;63.68;99987.34;6303570;20;1820163;-44
2022/02/06 08:19:55;;;;;;;;;12.00;12.00;;;;;3.34;63.38;99985.91;6314657;20;2781778;-43
2022/02/06 08:22:24;;;;;;;;;13.50;13.50;;;;;3.40;62.67;99986.66;6283305;20;2786727;-44
2022/02/06 08:24:53;;;;;;;;;10.50;10.00;;;;;3.58;62.17;99990.56;6276295;20;2816001;-44
2022/02/06 08:27:25;;;;;;;;;18.33;13.00;;;;;4.04;60.82;99978.59;6285226;20;2802461;-45
2022/02/06 08:29:56;;;;;;;;;11.20;9.40;;;;;4.36;59.32;99979.38;6339365;20;2759653;-44
2022/02/06 08:32:26;;;;;;;;;17.33;12.00;;;;;4.20;60.14;99980.78;6310839;20;2813822;-44
2022/02/06 08:34:56;;;;;;;;;13.50;10.50;;;;;4.21;59.00;99979.88;6313046;20;2785702;-44
2022/02/06 08:37:25;;;;;;;;;9.50;9.25;;;;;4.54;58.82;99978.81;6302128;20;1825428;-44
2022/02/06 08:39:55;;;;;;;;;8.50;8.50;;;;;4.76;58.08;99976.31;6333745;20;1813921;-45
2022/02/06 08:42:23;;;;;;;;;16.00;10.00;;;;;4.96;56.50;99973.00;6315175;20;2776359;-45
2022/02/06 08:44:54;;;;;;;;;10.00;10.00;;;;;5.20;56.07;99965.94;6280304;20;2784647;-46
2022/02/06 08:47:22;;;;;;;;;13.00;9.00;;;;;5.35;55.46;99961.88;6281449;20;2758739;-44
2022/02/06 08:49:53;;;;;;;;;23.67;15.67;;;;;5.86;54.95;99968.00;6278786;20;3572106;-44
2022/02/06 08:52:23;;;;;;;;;19.20;15.00;;;;;5.81;54.08;99964.66;6304737;20;2819027;-45
2022/02/06 08:54:51;;;;;;;;;12.00;12.00;;;;;5.82;54.91;99961.94;6279723;20;2809619;-45
2022/02/06 08:57:22;;;;;;;;;14.00;11.00;;;;;6.00;54.20;99964.84;6283778;20;2785840;-45
2022/02/06 08:59:50;;;;;;;;;14.00;12.00;;;;;6.00;53.56;99959.50;6283794;20;2803381;-44
2022/02/06 09:02:19;;;;;;;;;16.00;11.00;;;;;5.45;53.94;99963.28;6283186;20;2796143;-44
2022/02/06 09:04:48;;;;;;;;;12.00;12.00;;;;;5.85;53.98;99967.16;6281224;20;2815272;-45
2022/02/06 09:07:19;;;;;;;;;5.50;5.00;;;;;5.72;54.12;99960.53;6285425;20;2748206;-43
2022/02/06 09:09:50;;;;;;;;;23.00;15.00;;;;;6.09;54.14;99967.16;6276641;20;3576320;-44
2022/02/06 09:12:22;;;;;;;;;13.57;10.57;;;;;5.30;55.05;99955.00;6354599;20;1810796;-45
2022/02/06 09:14:50;;;;;;;;;12.00;12.00;;;;;5.89;54.96;99947.44;6311864;20;2800402;-44
2022/02/06 09:17:19;;;;;;;;;15.00;13.00;;;;;6.12;53.72;99951.06;6283386;20;2798228;-46
2022/02/06 09:19:49;;;;;;;;;11.80;11.20;;;;;6.72;53.26;99940.66;6309668;20;2788845;-47
2022/02/06 09:22:18;;;;;;;;;18.00;14.00;;;;;6.58;52.53;99933.19;6286556;20;2802863;-45
2022/02/06 09:24:46;;;;;;;;;15.00;11.00;;;;;6.60;52.53;99936.66;6314940;20;2794237;-44
2022/02/06 09:27:14;;;;;;;;;11.00;8.50;;;;;6.44;52.94;99935.56;6289217;20;2759684;-47
2022/02/06 09:29:44;;;;;;;;;8.00;6.67;;;;;6.21;53.04;99926.69;6324730;20;1811744;-46
2022/02/06 09:37:36;;;;;;;;;10.40;9.60;;;;;6.25;53.61;99914.13;6341749;20;2785721;-44
2022/02/06 09:40:09;;;;;;;;;13.00;10.00;;;;;6.44;53.36;99919.56;6284045;20;2787752;-44
2022/02/06 09:42:38;;;;;;;;;13.25;10.25;;;;;6.63;52.06;99907.19;6304069;20;1810816;-44
2022/02/06 09:45:07;;;;;;;;;14.50;10.00;;;;;7.15;51.92;99912.09;6313278;20;2785665;-44
2022/02/06 09:47:35;;;;;;;;;8.00;8.00;;;;;7.15;52.56;99910.28;6287818;20;2758640;-44
2022/02/06 09:50:06;;;;;;;;;9.75;6.50;;;;;6.67;53.26;99907.94;6296836;20;1807729;-46
2022/02/06 09:52:39;;;;;;;;;13.20;9.40;;;;;6.71;51.77;99915.72;6340186;20;2773294;-46
2022/02/06 09:55:15;;;;;;;;;11.40;10.00;;;;;7.16;52.61;99917.41;6304420;20;2783758;-44
2022/02/06 10:00:29;;;;;;;;;14.67;12.67;;;;;7.15;51.05;99906.75;6283493;20;3530548;-50
2022/02/06 10:03:07;;;;;;;;;8.50;8.50;;;;;6.80;52.44;99891.34;6317347;20;2737909;-46
2022/02/06 10:05:42;;;;;;;;;19.00;17.67;;;;;6.67;52.61;99892.81;6315014;20;3553466;-48
2022/02/06 10:08:38;;;;;;;;;21.50;17.50;;;;;6.65;51.73;99885.78;6309027;20;2496116;-43
2022/02/06 10:11:16;;;;;;;;;23.00;18.00;;;;;6.49;52.83;99883.75;6280311;20;2815920;-45
2022/02/06 10:13:46;;;;;;;;;20.00;20.00;;;;;7.13;52.00;99869.44;6283377;20;2827331;-44
2022/02/06 10:16:17;;;;;;;;;17.67;17.67;;;;;6.89;51.90;99865.19;6283407;20;3557570;-44
2022/02/06 10:18:46;;;;;;;;;26.33;21.67;;;;;6.85;51.45;99863.59;6282009;20;3577324;-44
2022/02/06 10:21:21;;;;;;;;;21.00;20.00;;;;;6.92;52.07;99849.03;6313796;20;2500245;-44
2022/02/06 10:26:40;;;;;;;;;19.00;19.00;;;;;7.60;50.54;99855.72;6285641;20;2823185;-44
2022/02/06 10:32:02;;;;;;;;;24.50;21.50;;;;;7.97;51.19;99832.59;6283938;20;2841995;-43
2022/02/06 10:34:35;;;;;;;;;23.50;23.00;;;;;8.39;50.40;99836.81;6279256;20;2498224;-43
2022/02/06 10:37:25;;;;;;;;;17.67;14.67;;;;;8.29;50.40;99830.13;6284649;20;3558587;-43
2022/02/06 10:40:06;;;;;;;;;23.00;18.00;;;;;7.85;50.20;99828.72;6314744;20;2824867;-44
2022/02/06 10:42:44;;;;;;;;;27.67;24.00;;;;;8.21;53.76;99824.31;6281764;20;3561669;-46
2022/02/06 10:45:25;;;;;;;;;20.33;15.33;;;;;7.82;50.91;99822.63;6282888;20;3540874;-45
2022/02/06 10:47:57;;;;;;;;;23.67;18.33;;;;;7.84;51.16;99812.75;6287651;20;3562890;-44
2022/02/06 10:50:29;;;;;;;;;14.00;12.00;;;;;7.53;50.96;99818.69;6287325;20;2793989;-44
2022/02/06 10:53:13;;;;;;;;;11.50;11.50;;;;;7.52;51.33;99812.47;6290050;20;2786704;-43
2022/02/06 10:56:04;;;;;;;;;17.20;12.00;;;;;7.90;51.66;99804.44;6311881;20;2802470;-45
2022/02/06 10:58:36;;;;;;;;;13.00;11.20;;;;;8.22;51.12;99788.63;6314001;20;2794072;-43
2022/02/06 11:01:22;;;;;;;;;13.40;11.80;;;;;8.13;50.82;99771.19;6314121;20;2799340;-43
2022/02/06 11:04:16;;;;;;;;;17.33;13.00;;;;;8.33;50.65;99775.56;6290288;20;2803597;-43
2022/02/06 11:06:48;;;;;;;;;13.00;12.00;;;;;8.20;50.69;99761.06;6318345;20;2782573;-44
2022/02/06 11:09:30;;;;;;;;;13.50;10.00;;;;;8.00;51.30;99749.56;6290716;20;2772143;-46
2022/02/06 11:12:13;;;;;;;;;10.00;10.00;;;;;7.62;51.61;99741.63;6289702;20;2775271;-44
2022/02/06 11:14:47;;;;;;;;;19.00;15.00;;;;;8.19;50.87;99732.59;6289348;20;2822180;-44
2022/02/06 11:17:26;;;;;;;;;13.60;12.00;;;;;8.27;50.73;99725.06;6314050;20;2789816;-45
2022/02/06 11:20:11;;;;;;;;;17.00;12.00;;;;;8.41;51.20;99725.22;6289457;20;2796137;-44
2022/02/06 11:22:53;;;;;;;;;10.00;9.00;;;;;8.07;51.53;99729.59;6293474;20;2776335;-46
2022/02/06 11:25:22;;;;;;;;;18.00;13.00;;;;;8.13;51.45;99723.06;6283451;20;2798205;-44
2022/02/06 11:27:53;;;;;;;;;10.00;8.60;;;;;8.62;51.19;99715.22;6316694;20;2764947;-45
2022/02/06 11:30:21;;;;;;;;;9.00;9.00;;;;;8.66;50.65;99708.75;6287727;20;2738008;-45
2022/02/06 11:32:49;;;;;;;;;10.00;10.00;;;;;8.54;50.59;99707.59;6288747;20;2783592;-45
2022/02/06 11:35:21;;;;;;;;;13.00;8.00;;;;;8.47;51.40;99705.31;6288259;20;2758571;-44
2022/02/06 11:45:18;;;;;;;;;12.00;8.00;;;;;8.90;49.69;99671.75;6319049;20;2760661;-46
2022/02/06 11:48:03;;;;;;;;;8.50;8.00;;;;;8.78;50.53;99661.72;6286454;20;2734627;-44
2022/02/06 11:50:33;;;;;;;;;6.50;6.50;;;;;8.83;50.21;99659.66;6302925;20;1819197;-46
2022/02/06 11:53:06;;;;;;;;;12.40;10.80;;;;;8.48;50.34;99643.69;6343701;20;2793001;-48
2022/02/06 11:55:50;;;;;;;;;9.50;9.50;;;;;8.63;50.13;99636.63;6280893;20;2775316;-47
2022/02/06 11:58:32;;;;;;;;;9.00;7.50;;;;;8.52;50.14;99629.19;6289510;20;2735666;-45
2022/02/06 12:01:06;;;;;;;;;8.50;8.50;;;;;8.55;50.95;99625.50;6321516;20;2736843;-46
2022/02/06 12:03:57;;;;;;;;;9.00;7.00;;;;;8.84;49.59;99626.56;6322398;20;2759445;-45
2022/02/06 12:06:48;;;;;;;;;7.75;7.75;;;;;8.87;49.16;99634.41;6306340;20;1819170;-44
2022/02/06 12:09:51;;;;;;;;;4.00;4.00;;;;;8.97;48.52;99630.28;6266852;20;2756496;-45
2022/02/06 12:12:39;;;;;;;;;11.00;8.00;;;;;9.62;47.91;99621.25;6286560;20;2768991;-44
2022/02/06 12:15:32;;;;;;;;;5.00;4.00;;;;;9.92;46.83;99623.06;6268809;20;2751312;-43
2022/02/06 12:18:09;;;;;;;;;9.57;8.29;;;;;9.78;47.35;99610.50;6331623;20;1792523;-45
2022/02/06 12:20:49;;;;;;;;;5.50;4.00;;;;;9.21;48.27;99600.38;6319706;20;2737994;-44
2022/02/06 12:23:58;;;;;;;;;8.00;7.00;;;;;9.22;48.38;99608.34;6290179;20;2731558;-45
2022/02/06 12:26:46;;;;;;;;;9.50;5.50;;;;;9.15;48.50;99595.38;6325537;20;2756686;-45
2022/02/06 12:29:23;;;;;;;;;7.00;7.00;;;;;9.13;48.33;99586.56;6314565;20;2742123;-43
2022/02/06 12:32:01;;;;;;;;;7.00;6.00;;;;;9.28;48.54;99580.34;6317506;20;2747269;-45
2022/02/06 12:37:42;;;;;;;;;9.00;8.00;;;;;9.04;48.86;99550.47;6311864;20;2753396;-44
2022/02/06 12:40:17;;;;;;;;;8.50;7.50;;;;;9.23;48.80;99540.41;6319904;20;2748198;-46
2022/02/06 12:42:51;;;;;;;;;12.50;9.00;;;;;9.36;48.65;99535.19;6283820;20;2770066;-45
2022/02/06 12:45:22;;;;;;;;;8.50;8.00;;;;;9.10;49.06;99522.47;6284717;20;2748165;-45
2022/02/06 12:47:57;;;;;;;;;6.00;4.00;;;;;9.81;49.36;99525.34;6291075;20;2742947;-45
2022/02/06 12:50:36;;;;;;;;;6.50;3.50;;;;;9.55;48.25;99512.66;6320335;20;2750355;-44
2022/02/06 12:53:14;;;;;;;;;9.50;6.00;;;;;10.35;47.25;99513.13;6287131;20;2749280;-45
2022/02/06 12:55:44;;;;;;;;;9.50;9.50;;;;;10.06;47.89;99497.03;6284809;20;2762791;-45
2022/02/06 12:58:16;;;;;;;;;8.00;7.00;;;;;9.53;48.52;99488.66;6290851;20;2733685;-45
2022/02/06 13:00:51;;;;;;;;;7.00;5.00;;;;;9.29;49.33;99487.44;6321106;20;2741988;-45
2022/02/06 13:03:35;;;;;;;;;6.50;6.50;;;;;9.59;52.38;99477.56;6289633;20;2739862;-45
2022/02/06 13:06:14;;;;;;;;;10.00;7.00;;;;;9.39;49.84;99464.50;6286911;20;2757597;-45
2022/02/06 13:08:51;;;;;;;;;8.00;8.00;;;;;9.59;48.47;99468.66;6285266;20;2746115;-46
2022/02/06 13:11:31;;;;;;;;;10.00;8.00;;;;;9.91;48.20;99477.38;6285147;20;2753397;-45
2022/02/06 13:14:15;;;;;;;;;11.60;7.80;;;;;10.29;48.04;99471.44;6326709;20;2481510;-44
2022/02/06 13:17:12;;;;;;;;;8.00;8.00;;;;;10.28;47.84;99465.22;6319136;20;2738876;-49
2022/02/06 13:22:55;;;;;;;;;9.50;4.00;;;;;10.51;47.93;99473.63;6287844;20;2745067;-45
2022/02/06 13:39:13;;;;;;;;;8.33;8.33;;;;;10.77;50.24;99434.34;6337868;20;1810687;-44
2022/02/06 13:41:42;;;;;;;;;7.00;5.00;;;;;10.30;49.99;99435.63;6323165;20;2633636;-46
2022/02/06 13:44:24;;;;;;;;;9.00;9.00;;;;;10.72;49.95;99421.22;6357856;20;3456577;-45
2022/02/06 13:46:57;;;;;;;;;14.00;11.00;;;;;10.74;49.31;99416.59;6338695;20;2784635;-45
2022/02/06 13:49:38;;;;;;;;;11.00;11.00;;;;;10.77;49.94;99402.97;6284067;20;2790039;-45
2022/02/06 13:52:12;;;;;;;;;11.00;11.00;;;;;10.70;49.85;99401.66;6335958;20;2785652;-44
2022/02/06 13:54:48;;;;;;;;;8.50;8.00;;;;;10.80;48.96;99385.78;6289363;20;2747121;-45
2022/02/06 13:57:22;;;;;;;;;9.71;9.71;;;;;10.92;48.99;99376.88;6328257;20;1800259;-45
2022/02/06 13:59:49;;;;;;;;;12.50;10.00;;;;;10.94;48.75;99371.41;6314735;20;2788887;-51
2022/02/06 14:02:18;;;;;;;;;5.25;4.00;;;;;10.86;48.60;99374.63;6303962;20;1814980;-46
2022/02/06 14:04:50;;;;;;;;;13.00;11.50;;;;;10.61;49.29;99367.38;6313227;20;2788808;-45
2022/02/06 14:07:22;;;;;;;;;17.67;16.00;;;;;10.85;49.19;99361.28;6285404;20;3551276;-45
2022/02/06 14:10:11;;;;;;;;;16.00;14.33;;;;;10.71;49.23;99355.03;6284137;20;3543087;-45
2022/02/06 14:12:56;;;;;;;;;18.00;12.00;;;;;10.35;50.00;99353.00;6284440;20;2795186;-46
2022/02/06 14:15:30;;;;;;;;;14.71;9.86;;;;;10.43;49.64;99344.44;6325701;20;1804579;-46
2022/02/06 14:18:07;;;;;;;;;10.00;10.00;;;;;10.41;49.81;99344.53;6313800;20;2775266;-47
2022/02/06 14:20:35;;;;;;;;;17.00;15.50;;;;;10.29;50.49;99337.28;6289926;20;2811061;-46
2022/02/06 14:23:05;;;;;;;;;16.00;14.00;;;;;10.56;50.52;99337.28;6290237;20;3517990;-46
2022/02/06 14:25:42;;;;;;;;;10.20;9.20;;;;;10.39;50.93;99338.41;6342192;20;2769026;-46
2022/02/06 14:28:27;;;;;;;;;13.40;9.80;;;;;10.32;50.98;99318.28;6344887;20;2773256;-46
2022/02/06 14:30:55;;;;;;;;;9.00;9.00;;;;;9.94;51.54;99315.44;6289219;20;2746119;-46
2022/02/06 14:33:28;;;;;;;;;12.00;10.50;;;;;10.42;50.89;99316.72;6290919;20;2791940;-45
2022/02/06 14:36:07;;;;;;;;;11.20;9.00;;;;;10.39;51.95;99305.34;6317430;20;2746098;-45
2022/02/06 14:38:47;;;;;;;;;12.00;10.00;;;;;10.01;52.03;99298.00;6319161;20;2790885;-49